Port Charlotte, Florida
Current Conditions -  °F | °C
As of 3:53 PM on Sunday 23 Nov 2014 (Local Time) from KPGD Reporting Station
Scattered Clouds Scattered Clouds  
Wind Chill: 84°   Ceiling: Unl
Heat Index: 89°   Visibility: 10mi
Dew Point: 71°   Wind: 20mph
Humidity: 65%   Direction: 200°SSW
Pressure: 29.91"   Gusts: NA
Location:  26.98°N, 82.1°W
Report Text: KPGD 232053Z 20017KT 10SM SCT032 29/22 A2991 RMK AO2 SLP127 T02890217 56016 $
Loading
Personal Weather Stations






























Interactive Weather Map New forecast layout! Learn more

10-Day Weather Forecast

Advertisements
Track Severe Weather on mobile